Aeroporto :
LOGIN :

Iscrizione | Disclaimer

   EN    FR    IT 

 










Sommario :    VFR   VFR Marginale   IFR   IFR Intensivo   IFR Molto Intensivo
Visibilità : 
Base nubi : 
>= 8 km
>= 3000ft
5 / 8 km
1000 / 3000 ft
1500m / 5 km
500 / 1000 ft
800 / 1500m
200 / 500 ft
< 800m
< 200 ft
Simboli :   Temporali  Nebbia  Neve Forte  Precipitazioni Forti  Vento > 20 kt
SIGMETs :   Varie  Temporali  Ghiacco  Turbolenza  Onda orograficha  Ceneri Vulcaniche






- Altitudine del aeroporto : 935 ft


EBFS - Florennes

ULTIMO METAR :
  • 071825Z AUTO 20010KT 9999 BKN034/// BKN065/// 07/06 Q1017 BLU

METARs OBSOLETI :
  • 071755Z AUTO 20011KT 9999 FEW014/// BKN035/// BKN070/// 07/06 Q1017 BLU
  • 071743Z AUTO 20009KT 9999 FEW010/// SCT033/// BKN046/// 07/06 Q1017 BLU
  • 071720Z AUTO 20008KT 9999 FEW009/// SCT013/// BKN044/// 07/06 Q1016 GRN
  • 071655Z AUTO 20009KT 9999 FEW011/// SCT060/// BKN080/// 07/06 Q1016 BLU
  • 071625Z AUTO 19012KT 9999 FEW031/// SCT039/// BKN055/// 07/06 Q1016 BLU
  • 071555Z AUTO 20010KT 9999 BKN031/// BKN065/// OVC100/// 08/06 Q1016 BLU

Previsioni scadute.



MetMap, La meteo Aeronautica in un colpo d'occhio ! - Copyright ORBIFLY Dicembre 2007 - Disclaimer

ORBIFLY MET'MAP TEAM :

Programmazione e sviluppo : Alexandra Zaïnal
Concezione : Baudouin d'Aumeries
Aiuto per la programmazione : Marc-Olivier Méhu
Supporto tecnico e logistico : Manuel Goepfert
Aiuto per la traduzione : Arnaldo La Scala

Contatto : metmap@orbifly.com




FONTI E CREDITI :

   NOAA